createdAt,value
2018-12-15T00:02:50.846Z,17.27
2018-12-15T00:07:54.857Z,18.97
2018-12-15T00:12:57.976Z,16.33
2018-12-15T00:18:01.178Z,14.83
2018-12-15T00:23:04.508Z,17.03
2018-12-15T00:28:07.738Z,15.17
2018-12-15T00:33:10.932Z,16.57
2018-12-15T00:38:14.147Z,18.17
2018-12-15T00:43:17.334Z,15.43
2018-12-15T00:48:20.601Z,17.17
2018-12-15T00:53:23.750Z,17.30
2018-12-15T00:58:26.932Z,17.97
2018-12-15T01:03:30.089Z,18.70
2018-12-15T01:08:33.320Z,17.27
2018-12-15T01:13:36.469Z,20.40
2018-12-15T01:18:39.639Z,16.93
2018-12-15T01:23:42.753Z,17.53
2018-12-15T01:28:45.950Z,16.97
2018-12-15T01:33:49.154Z,18.30
2018-12-15T01:38:52.352Z,20.93
2018-12-15T01:43:55.541Z,19.00
2018-12-15T01:48:58.719Z,24.47
2018-12-15T01:54:01.987Z,21.83
2018-12-15T01:59:05.355Z,22.77
2018-12-15T02:04:08.517Z,19.30
2018-12-15T02:09:11.674Z,24.03
2018-12-15T02:14:14.809Z,22.03
2018-12-15T02:19:17.935Z,20.43
2018-12-15T02:24:21.094Z,22.87
2018-12-15T02:29:24.224Z,23.73
2018-12-15T02:34:27.569Z,22.43
2018-12-15T02:39:31.313Z,23.00
2018-12-15T02:44:34.437Z,17.93
2018-12-15T02:49:37.556Z,19.80
2018-12-15T02:54:40.693Z,20.00
2018-12-15T02:59:43.818Z,20.23
2018-12-15T03:04:47.071Z,23.17
2018-12-15T03:09:50.228Z,17.70
2018-12-15T03:14:53.348Z,20.87
2018-12-15T03:20:01.302Z,17.83
2018-12-15T03:25:04.847Z,18.23
2018-12-15T03:30:08.043Z,18.17
2018-12-15T03:35:11.146Z,19.03
2018-12-15T03:40:14.304Z,19.53
2018-12-15T03:45:17.454Z,21.93
2018-12-15T03:50:20.570Z,21.33
2018-12-15T03:55:23.704Z,20.23
2018-12-15T04:00:26.838Z,22.73
2018-12-15T04:05:30.068Z,21.33
2018-12-15T04:10:34.708Z,19.63
2018-12-15T04:15:38.184Z,23.37
2018-12-15T04:20:41.334Z,20.07
2018-12-15T04:25:44.442Z,21.37
2018-12-15T04:30:47.542Z,21.00
2018-12-15T04:35:50.648Z,23.77
2018-12-15T04:40:53.898Z,23.87
2018-12-15T04:45:57.097Z,20.57
2018-12-15T04:51:00.251Z,20.77
2018-12-15T04:56:03.412Z,21.77
2018-12-15T05:01:07.626Z,20.83
2018-12-15T05:06:10.767Z,20.50
2018-12-15T05:11:13.909Z,19.83
2018-12-15T05:16:17.035Z,19.63
2018-12-15T05:21:20.156Z,21.90
2018-12-15T05:26:23.309Z,20.83
2018-12-15T05:31:26.424Z,22.27
2018-12-15T05:36:29.553Z,20.20
2018-12-15T05:41:32.689Z,20.90
2018-12-15T05:46:35.828Z,16.83
2018-12-15T05:51:38.954Z,21.33
2018-12-15T05:56:42.151Z,22.53
2018-12-15T06:01:45.266Z,20.60
2018-12-15T06:06:48.434Z,20.77
2018-12-15T06:11:51.686Z,22.27
2018-12-15T06:16:54.961Z,18.17
2018-12-15T06:21:58.108Z,22.40
2018-12-15T06:27:01.254Z,20.70
2018-12-15T06:32:04.515Z,19.80
2018-12-15T06:37:07.648Z,23.30
2018-12-15T06:42:10.746Z,23.00
2018-12-15T06:47:13.909Z,27.60
2018-12-15T06:52:17.045Z,27.30
2018-12-15T06:57:20.302Z,28.90
2018-12-15T07:02:23.581Z,30.40
2018-12-15T07:07:26.719Z,28.23
2018-12-15T07:12:29.863Z,28.53
2018-12-15T07:17:33.610Z,30.13
2018-12-15T07:22:36.754Z,31.87
2018-12-15T07:27:39.944Z,28.97
2018-12-15T07:32:43.118Z,26.73
2018-12-15T07:37:46.448Z,30.80
2018-12-15T07:42:49.772Z,29.33
2018-12-15T07:47:52.955Z,27.27
2018-12-15T07:52:56.084Z,29.70
2018-12-15T07:57:59.292Z,29.03
2018-12-15T08:03:02.502Z,27.17
2018-12-15T08:08:05.700Z,28.40
2018-12-15T08:18:32.022Z,29.70
2018-12-15T08:23:35.212Z,29.93
2018-12-15T08:28:38.465Z,27.03
2018-12-15T08:33:41.638Z,32.57
2018-12-15T08:38:44.818Z,28.97
2018-12-15T08:43:48.014Z,28.87
2018-12-15T08:48:51.197Z,28.30
2018-12-15T08:53:54.355Z,29.93
2018-12-15T08:58:57.558Z,34.37
2018-12-15T09:09:17.192Z,32.40
2018-12-15T09:14:20.486Z,30.43
2018-12-15T09:19:23.935Z,31.03
2018-12-15T09:24:27.214Z,29.73
2018-12-15T09:29:30.505Z,27.50
2018-12-15T09:34:33.807Z,30.40
2018-12-15T09:39:37.122Z,29.87
2018-12-15T09:44:40.360Z,32.20
2018-12-15T09:49:43.638Z,31.73
2018-12-15T09:54:46.904Z,29.30
2018-12-15T09:59:50.117Z,30.67
2018-12-15T10:04:53.302Z,33.80
2018-12-15T10:09:56.559Z,33.40
2018-12-15T10:14:59.806Z,30.00
2018-12-15T10:20:03.807Z,32.40
2018-12-15T10:25:07.172Z,31.80
2018-12-15T10:30:16.157Z,29.77
2018-12-15T10:35:19.926Z,25.03
2018-12-15T10:40:23.275Z,28.60
2018-12-15T10:45:26.497Z,29.50
2018-12-15T10:50:29.719Z,30.37
2018-12-15T10:55:32.972Z,26.57
2018-12-15T11:00:41.900Z,35.37
2018-12-15T11:05:45.201Z,29.57
2018-12-15T11:10:49.120Z,30.07
2018-12-15T11:15:52.342Z,29.07
2018-12-15T11:20:55.568Z,30.80
2018-12-15T11:25:58.753Z,27.40
2018-12-15T11:31:02.057Z,27.73
2018-12-15T11:36:05.278Z,31.67
2018-12-15T11:41:08.571Z,28.60
2018-12-15T11:46:11.807Z,31.93
2018-12-15T11:51:15.069Z,31.00
2018-12-15T11:56:18.501Z,30.30
2018-12-15T12:01:21.669Z,36.33
2018-12-15T12:06:24.889Z,33.43
2018-12-15T12:11:28.141Z,30.37
2018-12-15T12:16:31.405Z,33.13
2018-12-15T12:21:34.638Z,32.07
2018-12-15T12:26:37.863Z,32.43
2018-12-15T12:31:41.087Z,35.17
2018-12-15T12:36:44.315Z,30.17
2018-12-15T12:41:47.667Z,33.50
2018-12-15T12:46:51.744Z,32.43
2018-12-15T12:51:55.788Z,28.17
2018-12-15T12:56:59.066Z,32.57
2018-12-15T13:02:02.341Z,28.20
2018-12-15T13:07:05.643Z,34.23
2018-12-15T13:12:09.125Z,31.67
2018-12-15T13:17:13.323Z,32.80
2018-12-15T13:22:16.629Z,33.43
2018-12-15T13:27:20.507Z,30.27
2018-12-15T13:32:23.757Z,35.30
2018-12-15T13:37:27.177Z,32.53
2018-12-15T13:42:30.417Z,31.53
2018-12-15T13:47:34.309Z,35.67
2018-12-15T13:52:37.841Z,32.87
2018-12-15T13:57:41.213Z,31.27
2018-12-15T14:02:45.279Z,32.37
2018-12-15T14:07:48.570Z,34.47
2018-12-15T14:12:51.793Z,32.93
2018-12-15T14:17:55.088Z,29.77
2018-12-15T14:22:58.295Z,29.77
2018-12-15T14:28:01.517Z,29.50
2018-12-15T14:33:05.726Z,30.53
2018-12-15T14:38:09.041Z,30.93
2018-12-15T14:43:12.431Z,30.67
2018-12-15T14:48:15.819Z,34.10
2018-12-15T14:53:19.266Z,26.93
2018-12-15T14:58:22.507Z,28.90
2018-12-15T15:03:25.748Z,30.20
2018-12-15T15:08:28.998Z,31.87
2018-12-15T15:13:34.650Z,33.43
2018-12-15T15:18:37.606Z,27.70
2018-12-15T15:23:40.883Z,26.87
2018-12-15T15:28:44.170Z,31.50
2018-12-15T15:33:47.400Z,33.73
2018-12-15T15:38:50.649Z,32.17
2018-12-15T15:43:53.929Z,28.70
2018-12-15T15:48:57.284Z,31.57
2018-12-15T15:54:00.492Z,29.57
2018-12-15T15:59:03.877Z,30.77
2018-12-15T16:04:07.097Z,27.53
2018-12-15T16:14:26.774Z,31.00
2018-12-15T16:19:30.034Z,27.60
2018-12-15T16:24:33.295Z,27.17
2018-12-15T16:29:36.636Z,26.63
2018-12-15T16:34:39.816Z,28.23
2018-12-15T16:39:43.122Z,27.90
2018-12-15T16:44:46.381Z,27.43
2018-12-15T16:49:49.754Z,26.83
2018-12-15T16:54:53.419Z,39.97
2018-12-15T16:59:56.680Z,25.47
2018-12-15T17:05:00.008Z,24.00
2018-12-15T17:10:05.012Z,27.83
2018-12-15T17:20:25.278Z,21.20
2018-12-15T17:25:29.292Z,22.43
2018-12-15T17:32:16.315Z,23.83
2018-12-15T17:34:48.625Z,20.63
2018-12-15T17:37:20.958Z,24.23
2018-12-15T17:39:53.303Z,22.17
2018-12-15T17:42:25.737Z,22.67
2018-12-15T17:44:58.777Z,25.73
2018-12-15T17:47:31.134Z,21.07
2018-12-15T17:50:03.995Z,24.77
2018-12-15T17:52:36.379Z,20.83
2018-12-15T17:55:08.916Z,22.53
2018-12-15T17:57:41.308Z,22.23
2018-12-15T18:00:14.048Z,21.23
2018-12-15T18:02:46.379Z,22.67
2018-12-15T18:05:18.681Z,20.53
2018-12-15T18:07:51.074Z,18.57
2018-12-15T18:10:23.384Z,23.80
2018-12-15T18:12:55.755Z,23.67
2018-12-15T18:15:28.065Z,22.53
2018-12-15T18:18:00.445Z,20.30
2018-12-15T18:20:32.828Z,19.67
2018-12-15T18:23:05.230Z,20.70
2018-12-15T18:25:37.633Z,25.20
2018-12-15T18:28:09.973Z,21.00
2018-12-15T18:30:42.305Z,18.83
2018-12-15T18:33:14.839Z,19.07
2018-12-15T18:35:47.140Z,21.27
2018-12-15T18:38:19.422Z,19.77
2018-12-15T18:40:51.773Z,23.13
2018-12-15T18:43:24.102Z,21.20
2018-12-15T18:45:56.398Z,20.27
2018-12-15T18:48:28.710Z,22.73
2018-12-15T18:51:01.035Z,19.43
2018-12-15T18:53:33.351Z,20.37
2018-12-15T18:56:07.756Z,19.47
2018-12-15T18:58:40.176Z,23.27
2018-12-15T19:01:12.482Z,21.40
2018-12-15T19:03:45.672Z,21.07
2018-12-15T19:06:18.071Z,19.47
2018-12-15T19:08:50.397Z,19.73
2018-12-15T19:11:22.712Z,22.57
2018-12-15T19:13:55.031Z,22.07
2018-12-15T19:16:27.383Z,22.13
2018-12-15T19:18:59.660Z,23.00
2018-12-15T19:21:31.983Z,22.70
2018-12-15T19:24:04.836Z,23.13
2018-12-15T19:26:37.847Z,22.07
2018-12-15T19:29:11.568Z,21.13
2018-12-15T19:31:44.489Z,22.80
2018-12-15T19:34:17.752Z,26.87
2018-12-15T19:36:50.179Z,28.73
2018-12-15T19:39:22.513Z,25.27
2018-12-15T19:41:55.785Z,29.30
2018-12-15T19:44:28.256Z,26.30
2018-12-15T19:47:00.593Z,24.97
2018-12-15T19:49:32.868Z,25.37
2018-12-15T19:52:06.567Z,23.60
2018-12-15T19:54:38.925Z,21.87
2018-12-15T19:57:13.476Z,21.93
2018-12-15T19:59:45.793Z,24.33
2018-12-15T20:02:18.209Z,23.43
2018-12-15T20:04:51.185Z,23.10
2018-12-15T20:07:23.515Z,29.53
2018-12-15T20:09:56.451Z,23.53
2018-12-15T20:12:28.766Z,25.37
2018-12-15T20:15:01.119Z,23.10
2018-12-15T20:17:34.594Z,23.97
2018-12-15T20:20:07.304Z,23.50
2018-12-15T20:22:39.674Z,24.00
2018-12-15T20:25:12.667Z,25.63
2018-12-15T20:27:45.136Z,24.70
2018-12-15T20:30:17.507Z,25.23
2018-12-15T20:32:49.939Z,27.20
2018-12-15T20:35:23.084Z,24.73
2018-12-15T20:37:55.405Z,24.13
2018-12-15T20:40:27.806Z,23.53
2018-12-15T20:43:00.144Z,25.13
2018-12-15T20:45:32.513Z,25.87
2018-12-15T20:48:04.861Z,26.53
2018-12-15T20:50:38.094Z,24.07
2018-12-15T20:53:10.413Z,26.70
2018-12-15T20:55:43.291Z,22.67
2018-12-15T20:58:16.945Z,23.53
2018-12-15T21:00:49.303Z,26.37
2018-12-15T21:03:22.212Z,27.17
2018-12-15T21:05:55.095Z,27.50
2018-12-15T21:08:27.483Z,26.57
2018-12-15T21:10:59.839Z,26.83
2018-12-15T21:13:33.601Z,24.37
2018-12-15T21:16:06.654Z,25.10
2018-12-15T21:18:39.058Z,24.63
2018-12-15T21:21:11.368Z,26.50
2018-12-15T21:23:44.564Z,27.93
2018-12-15T21:26:16.966Z,27.40
2018-12-15T21:28:49.283Z,24.83
2018-12-15T21:31:22.264Z,19.67
2018-12-15T21:33:55.541Z,23.37
2018-12-15T21:36:27.960Z,24.13
2018-12-15T21:39:00.949Z,25.30
2018-12-15T21:41:34.195Z,24.83
2018-12-15T21:44:07.473Z,29.37
2018-12-15T21:46:39.823Z,23.40
2018-12-15T21:49:14.289Z,26.37
2018-12-15T21:51:47.385Z,25.03
2018-12-15T21:54:19.669Z,25.70
2018-12-15T21:56:51.965Z,28.60
2018-12-15T21:59:25.244Z,25.37
2018-12-15T22:01:57.589Z,25.20
2018-12-15T22:04:30.094Z,26.07
2018-12-15T22:07:02.471Z,23.33
2018-12-15T22:09:34.841Z,24.17
2018-12-15T22:12:07.712Z,27.90
2018-12-15T22:14:41.171Z,24.27
2018-12-15T22:17:14.312Z,25.13
2018-12-15T22:19:47.256Z,22.60
2018-12-15T22:22:19.644Z,26.13
2018-12-15T22:24:52.218Z,20.57
2018-12-15T22:27:24.536Z,27.87
2018-12-15T22:29:56.849Z,29.10
2018-12-15T22:32:29.168Z,24.17
2018-12-15T22:35:01.471Z,28.57
2018-12-15T22:37:33.767Z,30.77
2018-12-15T22:40:06.571Z,28.83
2018-12-15T22:42:38.863Z,25.77
2018-12-15T22:45:11.155Z,23.97
2018-12-15T22:47:43.458Z,25.83
2018-12-15T22:50:15.807Z,25.93
2018-12-15T22:52:48.092Z,27.20
2018-12-15T22:55:20.409Z,21.37
2018-12-15T22:57:52.679Z,26.70
2018-12-15T23:00:25.151Z,28.77
2018-12-15T23:02:57.476Z,24.43
2018-12-15T23:05:29.808Z,25.63
2018-12-15T23:08:02.142Z,25.03
2018-12-15T23:10:34.481Z,22.47
2018-12-15T23:13:07.345Z,23.93
2018-12-15T23:15:39.848Z,24.73
2018-12-15T23:18:12.161Z,28.00
2018-12-15T23:20:44.541Z,25.03
2018-12-15T23:23:16.808Z,23.67
2018-12-15T23:25:49.263Z,27.57
2018-12-15T23:28:21.545Z,34.00
2018-12-15T23:30:53.865Z,35.37
2018-12-15T23:33:26.186Z,27.70
2018-12-15T23:35:58.495Z,27.40
2018-12-15T23:38:30.783Z,28.43
2018-12-15T23:41:03.069Z,26.37
2018-12-15T23:43:35.366Z,27.43
2018-12-15T23:46:07.693Z,26.70
2018-12-15T23:48:39.988Z,25.00
2018-12-15T23:51:12.353Z,28.20
2018-12-15T23:53:44.673Z,30.63
2018-12-15T23:56:17.029Z,27.73
2018-12-15T23:58:49.359Z,29.33
